sensor_id;sensor_type;location;lat;lon;timestamp;P1;durP1;ratioP1;P2;durP2;ratioP2
2362;SDS011;64265;51.664;7.626;2023-09-07T00:00:37;3.80;;;3.20;;
2362;SDS011;64265;51.664;7.626;2023-09-07T00:03:04;3.63;;;2.57;;
2362;SDS011;64265;51.664;7.626;2023-09-07T00:05:30;3.60;;;2.70;;
2362;SDS011;64265;51.664;7.626;2023-09-07T00:07:58;3.63;;;2.40;;
2362;SDS011;64265;51.664;7.626;2023-09-07T00:10:25;4.27;;;2.37;;
2362;SDS011;64265;51.664;7.626;2023-09-07T00:12:52;2.90;;;2.70;;
2362;SDS011;64265;51.664;7.626;2023-09-07T00:15:19;3.60;;;3.20;;
2362;SDS011;64265;51.664;7.626;2023-09-07T00:17:46;3.07;;;2.77;;
2362;SDS011;64265;51.664;7.626;2023-09-07T00:20:14;3.83;;;3.40;;
2362;SDS011;64265;51.664;7.626;2023-09-07T00:22:41;2.63;;;2.43;;
2362;SDS011;64265;51.664;7.626;2023-09-07T00:25:09;2.80;;;2.60;;
2362;SDS011;64265;51.664;7.626;2023-09-07T00:27:36;3.87;;;2.63;;
2362;SDS011;64265;51.664;7.626;2023-09-07T00:30:03;3.20;;;2.90;;
2362;SDS011;64265;51.664;7.626;2023-09-07T00:32:31;3.13;;;2.50;;
2362;SDS011;64265;51.664;7.626;2023-09-07T00:34:58;3.57;;;3.13;;
2362;SDS011;64265;51.664;7.626;2023-09-07T00:37:25;3.00;;;2.77;;
2362;SDS011;64265;51.664;7.626;2023-09-07T00:39:52;3.10;;;2.90;;
2362;SDS011;64265;51.664;7.626;2023-09-07T00:42:20;2.80;;;2.60;;
2362;SDS011;64265;51.664;7.626;2023-09-07T00:44:46;2.77;;;2.57;;
2362;SDS011;64265;51.664;7.626;2023-09-07T00:47:13;2.73;;;2.53;;
2362;SDS011;64265;51.664;7.626;2023-09-07T00:49:40;3.47;;;2.73;;
2362;SDS011;64265;51.664;7.626;2023-09-07T00:52:07;3.23;;;2.93;;
2362;SDS011;64265;51.664;7.626;2023-09-07T00:54:34;2.63;;;2.43;;
2362;SDS011;64265;51.664;7.626;2023-09-07T00:57:03;2.70;;;2.50;;
2362;SDS011;64265;51.664;7.626;2023-09-07T00:59:32;2.20;;;2.00;;
2362;SDS011;64265;51.664;7.626;2023-09-07T01:01:59;2.67;;;2.43;;
2362;SDS011;64265;51.664;7.626;2023-09-07T01:04:26;3.67;;;3.30;;
2362;SDS011;64265;51.664;7.626;2023-09-07T01:06:55;2.70;;;2.50;;
2362;SDS011;64265;51.664;7.626;2023-09-07T01:09:25;3.50;;;2.90;;
2362;SDS011;64265;51.664;7.626;2023-09-07T01:11:54;3.33;;;3.10;;
2362;SDS011;64265;51.664;7.626;2023-09-07T01:14:21;5.33;;;3.10;;
2362;SDS011;64265;51.664;7.626;2023-09-07T01:16:49;2.90;;;2.70;;
2362;SDS011;64265;51.664;7.626;2023-09-07T01:19:16;3.40;;;3.07;;
2362;SDS011;64265;51.664;7.626;2023-09-07T01:21:44;3.33;;;2.87;;
2362;SDS011;64265;51.664;7.626;2023-09-07T01:24:12;2.83;;;2.63;;
2362;SDS011;64265;51.664;7.626;2023-09-07T01:26:41;2.77;;;2.57;;
2362;SDS011;64265;51.664;7.626;2023-09-07T01:29:08;2.63;;;2.43;;
2362;SDS011;64265;51.664;7.626;2023-09-07T01:31:35;2.67;;;2.47;;
2362;SDS011;64265;51.664;7.626;2023-09-07T01:34:03;2.97;;;2.77;;
2362;SDS011;64265;51.664;7.626;2023-09-07T01:36:30;3.30;;;2.97;;
2362;SDS011;64265;51.664;7.626;2023-09-07T01:38:58;3.20;;;3.00;;
2362;SDS011;64265;51.664;7.626;2023-09-07T01:41:25;3.03;;;2.73;;
2362;SDS011;64265;51.664;7.626;2023-09-07T01:43:54;3.60;;;3.30;;
2362;SDS011;64265;51.664;7.626;2023-09-07T01:46:20;3.00;;;2.70;;
2362;SDS011;64265;51.664;7.626;2023-09-07T01:48:47;3.60;;;2.83;;
2362;SDS011;64265;51.664;7.626;2023-09-07T01:51:14;4.30;;;3.07;;
2362;SDS011;64265;51.664;7.626;2023-09-07T01:53:40;4.47;;;2.63;;
2362;SDS011;64265;51.664;7.626;2023-09-07T01:56:08;2.50;;;2.30;;
2362;SDS011;64265;51.664;7.626;2023-09-07T01:58:35;2.20;;;2.03;;
2362;SDS011;64265;51.664;7.626;2023-09-07T02:01:02;2.90;;;2.70;;
2362;SDS011;64265;51.664;7.626;2023-09-07T02:03:29;3.30;;;3.00;;
2362;SDS011;64265;51.664;7.626;2023-09-07T02:05:55;3.13;;;2.50;;
2362;SDS011;64265;51.664;7.626;2023-09-07T02:08:22;2.53;;;2.17;;
2362;SDS011;64265;51.664;7.626;2023-09-07T02:10:49;2.97;;;2.60;;
2362;SDS011;64265;51.664;7.626;2023-09-07T02:13:17;3.10;;;2.67;;
2362;SDS011;64265;51.664;7.626;2023-09-07T02:15:43;2.50;;;2.30;;
2362;SDS011;64265;51.664;7.626;2023-09-07T02:18:10;3.30;;;2.77;;
2362;SDS011;64265;51.664;7.626;2023-09-07T02:20:37;3.30;;;3.00;;
2362;SDS011;64265;51.664;7.626;2023-09-07T02:23:04;2.93;;;2.57;;
2362;SDS011;64265;51.664;7.626;2023-09-07T02:25:31;2.57;;;2.37;;
2362;SDS011;64265;51.664;7.626;2023-09-07T02:27:59;2.80;;;2.60;;
2362;SDS011;64265;51.664;7.626;2023-09-07T02:30:27;4.13;;;3.27;;
2362;SDS011;64265;51.664;7.626;2023-09-07T02:32:54;2.50;;;2.30;;
2362;SDS011;64265;51.664;7.626;2023-09-07T02:35:21;3.40;;;3.10;;
2362;SDS011;64265;51.664;7.626;2023-09-07T02:37:47;4.10;;;3.10;;
2362;SDS011;64265;51.664;7.626;2023-09-07T02:40:14;2.50;;;2.27;;
2362;SDS011;64265;51.664;7.626;2023-09-07T02:42:41;3.33;;;3.03;;
2362;SDS011;64265;51.664;7.626;2023-09-07T02:45:10;3.47;;;3.17;;
2362;SDS011;64265;51.664;7.626;2023-09-07T02:47:39;3.03;;;2.73;;
2362;SDS011;64265;51.664;7.626;2023-09-07T02:50:06;3.30;;;3.00;;
2362;SDS011;64265;51.664;7.626;2023-09-07T02:52:33;2.80;;;2.60;;
2362;SDS011;64265;51.664;7.626;2023-09-07T02:54:59;2.80;;;2.60;;
2362;SDS011;64265;51.664;7.626;2023-09-07T02:57:26;3.00;;;2.53;;
2362;SDS011;64265;51.664;7.626;2023-09-07T02:59:53;2.83;;;2.60;;
2362;SDS011;64265;51.664;7.626;2023-09-07T03:02:20;2.60;;;2.40;;
2362;SDS011;64265;51.664;7.626;2023-09-07T03:04:52;3.00;;;2.70;;
2362;SDS011;64265;51.664;7.626;2023-09-07T03:07:19;3.10;;;2.77;;
2362;SDS011;64265;51.664;7.626;2023-09-07T03:09:46;2.60;;;2.40;;
2362;SDS011;64265;51.664;7.626;2023-09-07T03:12:13;3.10;;;2.70;;
2362;SDS011;64265;51.664;7.626;2023-09-07T03:14:42;3.03;;;2.63;;
2362;SDS011;64265;51.664;7.626;2023-09-07T03:17:09;3.50;;;2.90;;
2362;SDS011;64265;51.664;7.626;2023-09-07T03:19:36;2.57;;;2.37;;
2362;SDS011;64265;51.664;7.626;2023-09-07T03:22:04;3.97;;;2.90;;
2362;SDS011;64265;51.664;7.626;2023-09-07T03:24:31;2.90;;;2.70;;
2362;SDS011;64265;51.664;7.626;2023-09-07T03:26:58;2.67;;;2.47;;
2362;SDS011;64265;51.664;7.626;2023-09-07T03:29:25;3.10;;;2.90;;
2362;SDS011;64265;51.664;7.626;2023-09-07T03:31:52;2.60;;;2.40;;
2362;SDS011;64265;51.664;7.626;2023-09-07T03:34:18;3.90;;;2.60;;
2362;SDS011;64265;51.664;7.626;2023-09-07T03:36:46;3.10;;;2.90;;
2362;SDS011;64265;51.664;7.626;2023-09-07T03:39:14;3.53;;;3.17;;
2362;SDS011;64265;51.664;7.626;2023-09-07T03:41:40;2.93;;;2.73;;
2362;SDS011;64265;51.664;7.626;2023-09-07T03:44:07;3.13;;;2.93;;
2362;SDS011;64265;51.664;7.626;2023-09-07T03:46:34;3.20;;;3.00;;
2362;SDS011;64265;51.664;7.626;2023-09-07T03:49:00;3.07;;;2.77;;
2362;SDS011;64265;51.664;7.626;2023-09-07T03:51:27;2.97;;;2.67;;
2362;SDS011;64265;51.664;7.626;2023-09-07T03:53:54;2.67;;;2.47;;
2362;SDS011;64265;51.664;7.626;2023-09-07T03:56:22;2.53;;;2.33;;
2362;SDS011;64265;51.664;7.626;2023-09-07T03:58:49;3.20;;;2.90;;
2362;SDS011;64265;51.664;7.626;2023-09-07T04:01:16;3.13;;;2.90;;
2362;SDS011;64265;51.664;7.626;2023-09-07T04:03:42;3.43;;;3.13;;
2362;SDS011;64265;51.664;7.626;2023-09-07T04:06:09;2.53;;;2.33;;
2362;SDS011;64265;51.664;7.626;2023-09-07T04:08:36;2.60;;;2.30;;
2362;SDS011;64265;51.664;7.626;2023-09-07T04:11:03;3.20;;;2.90;;
2362;SDS011;64265;51.664;7.626;2023-09-07T04:13:32;2.83;;;2.63;;
2362;SDS011;64265;51.664;7.626;2023-09-07T04:15:58;2.63;;;2.43;;
2362;SDS011;64265;51.664;7.626;2023-09-07T04:18:25;2.70;;;2.50;;
2362;SDS011;64265;51.664;7.626;2023-09-07T04:20:52;2.63;;;2.43;;
2362;SDS011;64265;51.664;7.626;2023-09-07T04:23:19;3.77;;;3.43;;
2362;SDS011;64265;51.664;7.626;2023-09-07T04:25:45;2.90;;;2.70;;
2362;SDS011;64265;51.664;7.626;2023-09-07T04:28:12;2.97;;;2.77;;
2362;SDS011;64265;51.664;7.626;2023-09-07T04:30:41;2.70;;;2.50;;
2362;SDS011;64265;51.664;7.626;2023-09-07T04:33:08;2.60;;;2.40;;
2362;SDS011;64265;51.664;7.626;2023-09-07T04:35:34;3.07;;;2.80;;
2362;SDS011;64265;51.664;7.626;2023-09-07T04:38:01;2.67;;;2.47;;
2362;SDS011;64265;51.664;7.626;2023-09-07T04:40:29;3.37;;;3.07;;
2362;SDS011;64265;51.664;7.626;2023-09-07T04:42:55;4.67;;;2.83;;
2362;SDS011;64265;51.664;7.626;2023-09-07T04:45:22;2.50;;;2.30;;
2362;SDS011;64265;51.664;7.626;2023-09-07T04:47:50;3.20;;;2.97;;
2362;SDS011;64265;51.664;7.626;2023-09-07T04:50:17;3.27;;;2.50;;
2362;SDS011;64265;51.664;7.626;2023-09-07T04:52:44;3.23;;;2.93;;
2362;SDS011;64265;51.664;7.626;2023-09-07T04:55:11;2.50;;;2.30;;
2362;SDS011;64265;51.664;7.626;2023-09-07T04:57:37;3.07;;;2.80;;
2362;SDS011;64265;51.664;7.626;2023-09-07T05:00:05;2.60;;;2.40;;
2362;SDS011;64265;51.664;7.626;2023-09-07T05:02:32;3.00;;;2.70;;
2362;SDS011;64265;51.664;7.626;2023-09-07T05:05:05;2.77;;;2.57;;
2362;SDS011;64265;51.664;7.626;2023-09-07T05:07:32;3.10;;;2.90;;
2362;SDS011;64265;51.664;7.626;2023-09-07T05:09:59;3.30;;;3.00;;
2362;SDS011;64265;51.664;7.626;2023-09-07T05:12:26;3.03;;;2.83;;
2362;SDS011;64265;51.664;7.626;2023-09-07T05:14:52;2.87;;;2.50;;
2362;SDS011;64265;51.664;7.626;2023-09-07T05:17:19;3.70;;;3.40;;
2362;SDS011;64265;51.664;7.626;2023-09-07T05:19:46;3.63;;;3.33;;
2362;SDS011;64265;51.664;7.626;2023-09-07T05:22:14;3.23;;;2.93;;
2362;SDS011;64265;51.664;7.626;2023-09-07T05:24:41;3.37;;;3.07;;
2362;SDS011;64265;51.664;7.626;2023-09-07T05:27:10;3.53;;;3.23;;
2362;SDS011;64265;51.664;7.626;2023-09-07T05:29:37;3.43;;;3.13;;
2362;SDS011;64265;51.664;7.626;2023-09-07T05:32:04;2.40;;;2.20;;
2362;SDS011;64265;51.664;7.626;2023-09-07T05:34:32;3.00;;;2.40;;
2362;SDS011;64265;51.664;7.626;2023-09-07T05:36:59;3.03;;;2.73;;
2362;SDS011;64265;51.664;7.626;2023-09-07T05:39:27;3.23;;;2.80;;
2362;SDS011;64265;51.664;7.626;2023-09-07T05:41:53;3.10;;;2.73;;
2362;SDS011;64265;51.664;7.626;2023-09-07T05:44:20;2.70;;;2.50;;
2362;SDS011;64265;51.664;7.626;2023-09-07T05:46:47;2.80;;;2.60;;
2362;SDS011;64265;51.664;7.626;2023-09-07T05:49:14;2.80;;;2.60;;
2362;SDS011;64265;51.664;7.626;2023-09-07T05:51:40;2.57;;;2.37;;
2362;SDS011;64265;51.664;7.626;2023-09-07T05:54:07;3.00;;;2.80;;
2362;SDS011;64265;51.664;7.626;2023-09-07T05:56:35;3.87;;;2.80;;
2362;SDS011;64265;51.664;7.626;2023-09-07T05:59:02;5.63;;;5.10;;
2362;SDS011;64265;51.664;7.626;2023-09-07T06:01:28;3.60;;;3.30;;
2362;SDS011;64265;51.664;7.626;2023-09-07T06:03:55;4.27;;;3.30;;
2362;SDS011;64265;51.664;7.626;2023-09-07T06:06:22;4.20;;;3.70;;
2362;SDS011;64265;51.664;7.626;2023-09-07T06:08:49;3.73;;;3.30;;
2362;SDS011;64265;51.664;7.626;2023-09-07T06:11:15;5.70;;;3.40;;
2362;SDS011;64265;51.664;7.626;2023-09-07T06:13:43;5.70;;;4.03;;
2362;SDS011;64265;51.664;7.626;2023-09-07T06:16:11;3.60;;;3.30;;
2362;SDS011;64265;51.664;7.626;2023-09-07T06:18:38;6.63;;;3.67;;
2362;SDS011;64265;51.664;7.626;2023-09-07T06:21:04;4.90;;;4.50;;
2362;SDS011;64265;51.664;7.626;2023-09-07T06:23:31;3.73;;;3.47;;
2362;SDS011;64265;51.664;7.626;2023-09-07T06:25:58;3.97;;;3.67;;
2362;SDS011;64265;51.664;7.626;2023-09-07T06:28:26;5.47;;;4.97;;
2362;SDS011;64265;51.664;7.626;2023-09-07T06:30:54;3.87;;;3.57;;
2362;SDS011;64265;51.664;7.626;2023-09-07T06:33:20;5.50;;;3.60;;
2362;SDS011;64265;51.664;7.626;2023-09-07T06:35:47;4.57;;;4.17;;
2362;SDS011;64265;51.664;7.626;2023-09-07T06:38:14;5.50;;;4.50;;
2362;SDS011;64265;51.664;7.626;2023-09-07T06:40:40;5.90;;;3.57;;
2362;SDS011;64265;51.664;7.626;2023-09-07T06:43:13;3.90;;;3.60;;
2362;SDS011;64265;51.664;7.626;2023-09-07T06:45:39;4.10;;;3.70;;
2362;SDS011;64265;51.664;7.626;2023-09-07T06:48:07;7.63;;;4.50;;
2362;SDS011;64265;51.664;7.626;2023-09-07T06:50:34;4.70;;;4.30;;
2362;SDS011;64265;51.664;7.626;2023-09-07T06:53:01;4.20;;;3.87;;
2362;SDS011;64265;51.664;7.626;2023-09-07T06:55:28;6.93;;;4.50;;
2362;SDS011;64265;51.664;7.626;2023-09-07T06:57:55;4.43;;;4.03;;
2362;SDS011;64265;51.664;7.626;2023-09-07T07:00:22;5.07;;;4.57;;
2362;SDS011;64265;51.664;7.626;2023-09-07T07:02:49;5.43;;;4.87;;
2362;SDS011;64265;51.664;7.626;2023-09-07T07:05:17;6.57;;;5.13;;
2362;SDS011;64265;51.664;7.626;2023-09-07T07:07:43;8.03;;;4.60;;
2362;SDS011;64265;51.664;7.626;2023-09-07T07:10:10;10.30;;;4.50;;
2362;SDS011;64265;51.664;7.626;2023-09-07T07:12:37;7.80;;;4.27;;
2362;SDS011;64265;51.664;7.626;2023-09-07T07:15:04;7.73;;;4.77;;
2362;SDS011;64265;51.664;7.626;2023-09-07T07:17:32;3.97;;;3.67;;
2362;SDS011;64265;51.664;7.626;2023-09-07T07:19:59;6.03;;;4.40;;
2362;SDS011;64265;51.664;7.626;2023-09-07T07:22:27;5.67;;;4.00;;
2362;SDS011;64265;51.664;7.626;2023-09-07T07:24:53;5.37;;;4.00;;
2362;SDS011;64265;51.664;7.626;2023-09-07T07:27:20;6.87;;;4.67;;
2362;SDS011;64265;51.664;7.626;2023-09-07T07:29:47;7.07;;;5.27;;
2362;SDS011;64265;51.664;7.626;2023-09-07T07:32:13;5.90;;;4.90;;
2362;SDS011;64265;51.664;7.626;2023-09-07T07:34:40;7.20;;;5.23;;
2362;SDS011;64265;51.664;7.626;2023-09-07T07:37:08;6.57;;;5.30;;
2362;SDS011;64265;51.664;7.626;2023-09-07T07:39:36;5.87;;;4.23;;
2362;SDS011;64265;51.664;7.626;2023-09-07T07:42:03;4.87;;;4.40;;
2362;SDS011;64265;51.664;7.626;2023-09-07T07:44:31;5.57;;;4.97;;
2362;SDS011;64265;51.664;7.626;2023-09-07T07:46:58;5.63;;;4.73;;
2362;SDS011;64265;51.664;7.626;2023-09-07T07:49:24;5.60;;;5.00;;
2362;SDS011;64265;51.664;7.626;2023-09-07T07:51:52;5.30;;;4.80;;
2362;SDS011;64265;51.664;7.626;2023-09-07T07:54:20;5.33;;;4.60;;
2362;SDS011;64265;51.664;7.626;2023-09-07T07:56:49;7.47;;;5.43;;
2362;SDS011;64265;51.664;7.626;2023-09-07T07:59:16;4.37;;;4.07;;
2362;SDS011;64265;51.664;7.626;2023-09-07T08:01:42;9.20;;;4.87;;
2362;SDS011;64265;51.664;7.626;2023-09-07T08:04:09;4.90;;;4.40;;
2362;SDS011;64265;51.664;7.626;2023-09-07T08:06:36;6.00;;;5.33;;
2362;SDS011;64265;51.664;7.626;2023-09-07T08:09:03;5.87;;;4.60;;
2362;SDS011;64265;51.664;7.626;2023-09-07T08:11:30;10.63;;;4.40;;
2362;SDS011;64265;51.664;7.626;2023-09-07T08:13:58;8.20;;;5.70;;
2362;SDS011;64265;51.664;7.626;2023-09-07T08:16:25;7.63;;;4.47;;
2362;SDS011;64265;51.664;7.626;2023-09-07T08:18:51;7.80;;;5.30;;
2362;SDS011;64265;51.664;7.626;2023-09-07T08:21:18;5.30;;;4.70;;
2362;SDS011;64265;51.664;7.626;2023-09-07T08:23:45;5.63;;;4.50;;
2362;SDS011;64265;51.664;7.626;2023-09-07T08:26:12;5.40;;;4.90;;
2362;SDS011;64265;51.664;7.626;2023-09-07T08:28:39;5.60;;;4.63;;
2362;SDS011;64265;51.664;7.626;2023-09-07T08:31:08;4.47;;;3.87;;
2362;SDS011;64265;51.664;7.626;2023-09-07T08:33:35;7.00;;;4.83;;
2362;SDS011;64265;51.664;7.626;2023-09-07T08:36:05;10.07;;;4.30;;
2362;SDS011;64265;51.664;7.626;2023-09-07T08:38:33;4.73;;;4.20;;
2362;SDS011;64265;51.664;7.626;2023-09-07T08:41:01;6.70;;;4.30;;
2362;SDS011;64265;51.664;7.626;2023-09-07T08:43:30;6.90;;;4.60;;
2362;SDS011;64265;51.664;7.626;2023-09-07T08:46:04;7.40;;;4.50;;
2362;SDS011;64265;51.664;7.626;2023-09-07T08:48:38;5.17;;;4.57;;
2362;SDS011;64265;51.664;7.626;2023-09-07T08:51:05;7.90;;;4.43;;
2362;SDS011;64265;51.664;7.626;2023-09-07T08:53:32;5.33;;;4.70;;
2362;SDS011;64265;51.664;7.626;2023-09-07T08:56:00;5.00;;;4.50;;
2362;SDS011;64265;51.664;7.626;2023-09-07T08:58:28;8.83;;;5.13;;
2362;SDS011;64265;51.664;7.626;2023-09-07T09:00:57;4.70;;;4.20;;
2362;SDS011;64265;51.664;7.626;2023-09-07T09:03:23;7.10;;;4.47;;
2362;SDS011;64265;51.664;7.626;2023-09-07T09:05:52;5.30;;;4.03;;
2362;SDS011;64265;51.664;7.626;2023-09-07T09:08:20;5.80;;;5.20;;
2362;SDS011;64265;51.664;7.626;2023-09-07T09:10:49;7.90;;;5.00;;
2362;SDS011;64265;51.664;7.626;2023-09-07T09:13:27;6.17;;;4.20;;
2362;SDS011;64265;51.664;7.626;2023-09-07T09:15:53;4.70;;;4.20;;
2362;SDS011;64265;51.664;7.626;2023-09-07T09:18:20;5.87;;;4.13;;
2362;SDS011;64265;51.664;7.626;2023-09-07T09:20:47;4.80;;;4.03;;
2362;SDS011;64265;51.664;7.626;2023-09-07T09:23:15;5.10;;;4.57;;
2362;SDS011;64265;51.664;7.626;2023-09-07T09:25:42;5.37;;;4.23;;
2362;SDS011;64265;51.664;7.626;2023-09-07T09:28:09;5.30;;;4.53;;
2362;SDS011;64265;51.664;7.626;2023-09-07T09:30:36;4.83;;;4.43;;
2362;SDS011;64265;51.664;7.626;2023-09-07T09:33:05;4.70;;;4.30;;
2362;SDS011;64265;51.664;7.626;2023-09-07T09:35:32;4.50;;;4.10;;
2362;SDS011;64265;51.664;7.626;2023-09-07T09:38:01;4.47;;;4.07;;
2362;SDS011;64265;51.664;7.626;2023-09-07T09:40:30;5.77;;;3.97;;
2362;SDS011;64265;51.664;7.626;2023-09-07T09:42:58;4.13;;;3.73;;
2362;SDS011;64265;51.664;7.626;2023-09-07T09:45:27;5.10;;;4.27;;
2362;SDS011;64265;51.664;7.626;2023-09-07T09:47:54;6.87;;;4.40;;
2362;SDS011;64265;51.664;7.626;2023-09-07T09:50:22;4.90;;;3.97;;
2362;SDS011;64265;51.664;7.626;2023-09-07T09:52:49;6.50;;;4.80;;
2362;SDS011;64265;51.664;7.626;2023-09-07T09:55:18;5.83;;;5.33;;
2362;SDS011;64265;51.664;7.626;2023-09-07T09:57:47;5.50;;;4.20;;
2362;SDS011;64265;51.664;7.626;2023-09-07T10:00:15;5.80;;;4.77;;
2362;SDS011;64265;51.664;7.626;2023-09-07T10:02:51;4.63;;;4.10;;
2362;SDS011;64265;51.664;7.626;2023-09-07T10:05:24;5.17;;;4.40;;
2362;SDS011;64265;51.664;7.626;2023-09-07T10:07:51;4.63;;;3.53;;
2362;SDS011;64265;51.664;7.626;2023-09-07T10:10:18;3.90;;;3.57;;
2362;SDS011;64265;51.664;7.626;2023-09-07T10:12:52;4.37;;;4.00;;
2362;SDS011;64265;51.664;7.626;2023-09-07T10:15:20;4.40;;;3.53;;
2362;SDS011;64265;51.664;7.626;2023-09-07T10:17:47;3.80;;;3.50;;
2362;SDS011;64265;51.664;7.626;2023-09-07T10:20:15;6.80;;;4.00;;
2362;SDS011;64265;51.664;7.626;2023-09-07T10:22:43;3.70;;;3.40;;
2362;SDS011;64265;51.664;7.626;2023-09-07T10:25:19;4.27;;;3.93;;
2362;SDS011;64265;51.664;7.626;2023-09-07T10:27:48;5.30;;;3.80;;
2362;SDS011;64265;51.664;7.626;2023-09-07T10:30:15;5.00;;;4.60;;
2362;SDS011;64265;51.664;7.626;2023-09-07T10:32:44;5.10;;;4.60;;
2362;SDS011;64265;51.664;7.626;2023-09-07T10:35:12;4.13;;;3.73;;
2362;SDS011;64265;51.664;7.626;2023-09-07T10:37:40;4.30;;;3.90;;
2362;SDS011;64265;51.664;7.626;2023-09-07T10:40:08;8.90;;;4.07;;
2362;SDS011;64265;51.664;7.626;2023-09-07T10:42:36;4.77;;;4.33;;
2362;SDS011;64265;51.664;7.626;2023-09-07T10:45:12;4.23;;;3.93;;
2362;SDS011;64265;51.664;7.626;2023-09-07T10:47:41;4.23;;;3.83;;
2362;SDS011;64265;51.664;7.626;2023-09-07T10:50:10;5.50;;;5.00;;
2362;SDS011;64265;51.664;7.626;2023-09-07T10:52:37;4.00;;;3.70;;
2362;SDS011;64265;51.664;7.626;2023-09-07T10:55:05;4.43;;;4.03;;
2362;SDS011;64265;51.664;7.626;2023-09-07T10:57:32;3.93;;;3.63;;
2362;SDS011;64265;51.664;7.626;2023-09-07T11:00:08;4.00;;;3.70;;
2362;SDS011;64265;51.664;7.626;2023-09-07T11:02:37;4.70;;;4.30;;
2362;SDS011;64265;51.664;7.626;2023-09-07T11:05:04;5.10;;;4.60;;
2362;SDS011;64265;51.664;7.626;2023-09-07T11:07:31;4.17;;;3.87;;
2362;SDS011;64265;51.664;7.626;2023-09-07T11:09:59;4.37;;;3.80;;
2362;SDS011;64265;51.664;7.626;2023-09-07T11:12:29;4.80;;;4.40;;
2362;SDS011;64265;51.664;7.626;2023-09-07T11:14:56;4.20;;;3.90;;
2362;SDS011;64265;51.664;7.626;2023-09-07T11:17:25;4.50;;;4.10;;
2362;SDS011;64265;51.664;7.626;2023-09-07T11:19:54;4.43;;;4.03;;
2362;SDS011;64265;51.664;7.626;2023-09-07T11:22:21;4.50;;;4.10;;
2362;SDS011;64265;51.664;7.626;2023-09-07T11:24:48;4.10;;;3.80;;
2362;SDS011;64265;51.664;7.626;2023-09-07T11:27:16;4.70;;;4.27;;
2362;SDS011;64265;51.664;7.626;2023-09-07T11:29:49;5.13;;;4.33;;
2362;SDS011;64265;51.664;7.626;2023-09-07T11:32:17;9.20;;;3.90;;
2362;SDS011;64265;51.664;7.626;2023-09-07T11:34:47;4.27;;;3.97;;
2362;SDS011;64265;51.664;7.626;2023-09-07T11:37:16;5.23;;;4.83;;
2362;SDS011;64265;51.664;7.626;2023-09-07T11:39:44;6.17;;;4.40;;
2362;SDS011;64265;51.664;7.626;2023-09-07T11:42:10;4.60;;;4.30;;
2362;SDS011;64265;51.664;7.626;2023-09-07T11:44:37;4.73;;;4.10;;
2362;SDS011;64265;51.664;7.626;2023-09-07T11:47:04;6.87;;;4.50;;
2362;SDS011;64265;51.664;7.626;2023-09-07T11:49:31;5.33;;;4.00;;
2362;SDS011;64265;51.664;7.626;2023-09-07T11:51:58;5.80;;;3.90;;
2362;SDS011;64265;51.664;7.626;2023-09-07T11:54:27;5.53;;;4.20;;
2362;SDS011;64265;51.664;7.626;2023-09-07T11:56:54;6.43;;;4.20;;
2362;SDS011;64265;51.664;7.626;2023-09-07T11:59:21;5.20;;;4.80;;
2362;SDS011;64265;51.664;7.626;2023-09-07T12:01:48;5.40;;;3.93;;
2362;SDS011;64265;51.664;7.626;2023-09-07T12:04:15;7.33;;;4.57;;
2362;SDS011;64265;51.664;7.626;2023-09-07T12:06:42;4.10;;;3.80;;
2362;SDS011;64265;51.664;7.626;2023-09-07T12:09:09;9.53;;;4.17;;
2362;SDS011;64265;51.664;7.626;2023-09-07T12:11:37;5.80;;;4.17;;
2362;SDS011;64265;51.664;7.626;2023-09-07T12:14:03;4.40;;;4.00;;
2362;SDS011;64265;51.664;7.626;2023-09-07T12:16:30;4.60;;;3.67;;
2362;SDS011;64265;51.664;7.626;2023-09-07T12:18:57;4.87;;;4.33;;
2362;SDS011;64265;51.664;7.626;2023-09-07T12:21:24;4.90;;;4.40;;
2362;SDS011;64265;51.664;7.626;2023-09-07T12:23:50;4.13;;;3.83;;
2362;SDS011;64265;51.664;7.626;2023-09-07T12:26:17;6.50;;;4.07;;
2362;SDS011;64265;51.664;7.626;2023-09-07T12:28:47;4.90;;;4.00;;
2362;SDS011;64265;51.664;7.626;2023-09-07T12:31:14;5.60;;;4.60;;
2362;SDS011;64265;51.664;7.626;2023-09-07T12:33:41;4.60;;;4.30;;
2362;SDS011;64265;51.664;7.626;2023-09-07T12:36:08;4.40;;;4.00;;
2362;SDS011;64265;51.664;7.626;2023-09-07T12:38:36;4.83;;;4.43;;
2362;SDS011;64265;51.664;7.626;2023-09-07T12:41:03;4.97;;;4.47;;
2362;SDS011;64265;51.664;7.626;2023-09-07T12:43:30;4.73;;;4.30;;
2362;SDS011;64265;51.664;7.626;2023-09-07T12:45:58;4.43;;;4.03;;
2362;SDS011;64265;51.664;7.626;2023-09-07T12:48:25;4.27;;;3.87;;
2362;SDS011;64265;51.664;7.626;2023-09-07T12:50:52;4.40;;;4.00;;
2362;SDS011;64265;51.664;7.626;2023-09-07T12:53:19;4.50;;;4.10;;
2362;SDS011;64265;51.664;7.626;2023-09-07T12:55:49;4.40;;;4.10;;
2362;SDS011;64265;51.664;7.626;2023-09-07T12:58:16;3.90;;;3.60;;
2362;SDS011;64265;51.664;7.626;2023-09-07T13:00:43;4.57;;;4.13;;
2362;SDS011;64265;51.664;7.626;2023-09-07T13:03:11;5.10;;;4.70;;
2362;SDS011;64265;51.664;7.626;2023-09-07T13:05:38;9.93;;;4.70;;
2362;SDS011;64265;51.664;7.626;2023-09-07T13:08:05;4.50;;;4.00;;
2362;SDS011;64265;51.664;7.626;2023-09-07T13:10:32;4.60;;;4.20;;
2362;SDS011;64265;51.664;7.626;2023-09-07T13:12:59;4.57;;;4.10;;
2362;SDS011;64265;51.664;7.626;2023-09-07T13:15:25;4.33;;;3.93;;
2362;SDS011;64265;51.664;7.626;2023-09-07T13:17:52;4.37;;;3.97;;
2362;SDS011;64265;51.664;7.626;2023-09-07T13:20:20;5.03;;;3.63;;
2362;SDS011;64265;51.664;7.626;2023-09-07T13:22:48;4.60;;;4.20;;
2362;SDS011;64265;51.664;7.626;2023-09-07T13:25:15;3.97;;;3.47;;
2362;SDS011;64265;51.664;7.626;2023-09-07T13:27:41;5.10;;;4.60;;
2362;SDS011;64265;51.664;7.626;2023-09-07T13:30:08;7.30;;;4.23;;
2362;SDS011;64265;51.664;7.626;2023-09-07T13:32:37;3.90;;;3.50;;
2362;SDS011;64265;51.664;7.626;2023-09-07T13:35:04;5.20;;;4.60;;
2362;SDS011;64265;51.664;7.626;2023-09-07T13:37:32;5.50;;;2.90;;
2362;SDS011;64265;51.664;7.626;2023-09-07T13:40:00;3.70;;;3.40;;
2362;SDS011;64265;51.664;7.626;2023-09-07T13:42:28;4.40;;;4.00;;
2362;SDS011;64265;51.664;7.626;2023-09-07T13:44:55;5.40;;;3.70;;
2362;SDS011;64265;51.664;7.626;2023-09-07T13:47:22;4.20;;;3.90;;
2362;SDS011;64265;51.664;7.626;2023-09-07T13:49:49;3.80;;;3.40;;
2362;SDS011;64265;51.664;7.626;2023-09-07T13:52:15;4.70;;;4.30;;
2362;SDS011;64265;51.664;7.626;2023-09-07T13:54:43;6.10;;;5.13;;
2362;SDS011;64265;51.664;7.626;2023-09-07T13:57:10;4.27;;;3.97;;
2362;SDS011;64265;51.664;7.626;2023-09-07T13:59:37;3.90;;;3.47;;
2362;SDS011;64265;51.664;7.626;2023-09-07T14:02:03;4.93;;;4.20;;
2362;SDS011;64265;51.664;7.626;2023-09-07T14:04:30;3.80;;;3.50;;
2362;SDS011;64265;51.664;7.626;2023-09-07T14:06:57;4.50;;;4.20;;
2362;SDS011;64265;51.664;7.626;2023-09-07T14:09:23;4.13;;;3.50;;
2362;SDS011;64265;51.664;7.626;2023-09-07T14:11:51;3.80;;;3.20;;
2362;SDS011;64265;51.664;7.626;2023-09-07T14:14:18;4.00;;;3.60;;
2362;SDS011;64265;51.664;7.626;2023-09-07T14:16:46;4.30;;;3.90;;
2362;SDS011;64265;51.664;7.626;2023-09-07T14:19:13;4.63;;;3.83;;
2362;SDS011;64265;51.664;7.626;2023-09-07T14:21:39;4.67;;;4.27;;
2362;SDS011;64265;51.664;7.626;2023-09-07T14:24:05;3.70;;;3.40;;
2362;SDS011;64265;51.664;7.626;2023-09-07T14:26:32;4.20;;;3.90;;
2362;SDS011;64265;51.664;7.626;2023-09-07T14:29:00;4.93;;;4.53;;
2362;SDS011;64265;51.664;7.626;2023-09-07T14:31:27;4.30;;;4.00;;
2362;SDS011;64265;51.664;7.626;2023-09-07T14:33:53;4.03;;;3.63;;
2362;SDS011;64265;51.664;7.626;2023-09-07T14:36:20;4.83;;;4.47;;
2362;SDS011;64265;51.664;7.626;2023-09-07T14:38:47;3.80;;;3.50;;
2362;SDS011;64265;51.664;7.626;2023-09-07T14:41:13;4.40;;;3.60;;
2362;SDS011;64265;51.664;7.626;2023-09-07T14:43:43;4.27;;;3.97;;
2362;SDS011;64265;51.664;7.626;2023-09-07T14:46:12;3.70;;;3.40;;
2362;SDS011;64265;51.664;7.626;2023-09-07T14:48:39;4.30;;;3.93;;
2362;SDS011;64265;51.664;7.626;2023-09-07T14:51:05;4.40;;;4.10;;
2362;SDS011;64265;51.664;7.626;2023-09-07T14:53:32;4.70;;;3.73;;
2362;SDS011;64265;51.664;7.626;2023-09-07T14:55:59;4.43;;;4.03;;
2362;SDS011;64265;51.664;7.626;2023-09-07T14:58:26;3.70;;;3.37;;
2362;SDS011;64265;51.664;7.626;2023-09-07T15:00:52;8.33;;;3.80;;